Main page
METAR-TAF:

METAR-TAF

Airports :

Killarney, Ireland

Kerry Airport

latitude: 52-10-51N, longitude: 9-31-26W, elevation: 34 m

Current weather observation

The report was made 6 hours and 19 minutes ago, at 20:00 UTC
Wind 5 kt from the West
Temperature 8°C
Humidity 87%
Pressure 1024 hPa
Visibility 10 km or more
Scattered clouds at a height of 2900 ft
Scattered clouds at a height of 4200 ft

METAR: EIKY 162000Z 26005KT 9999 SCT029 SCT042 08/06 Q1024

Time: 02:19 (02:19 UTC)

Forecast

The report was made 9 hours and 19 minutes ago, at 17:00 UTC
Forecast valid from 16 at 18 UTC to 16 at 21 UTC
Wind 5 kt from the West/Southwest
Visibility 10 km or more
Few clouds at a height of 1200 ft
Scattered clouds at a height of 2000 ft
Broken clouds at a height of 3500 ft
Becoming
from 16 at 18 UTC to 16 at 21 UTC
Wind 5 kt from the South/Southwest

TAF: EIKY 161700Z 1618/1621 24005KT 9999 FEW012 SCT020 BKN035 BECMG 1618/1621 20005KT

Weather observations and forecasts of more than 4000 airports (METAR and TAF reports).

The available stations are represented by yellow and red dots on the map.

Hover mouse over dot to see the name of the station.

Then click to see weather observations and forecasts.

To change the map : click on the green buttons with a black cross to zoom in, on the green button with a dash to zoom out, or on the green arrows for adjacent maps.


METAR-TAF: